Time;durP1;ratioP1;P1;durP2;ratioP2;P2;SDS_P1;SDS_P2;PMS_P1;PMS_P2;Temp;Humidity;BMP_temperature;BMP_pressure;BME280_temperature;BME280_humidity;BME280_pressure;Samples;Min_cycle;Max_cycle;Signal;HPM_P1;HPM_P2
2021/05/04 00:01:42;;;;;;;5.67;5.07;;;;;;;15.39;45.69;95361.06;5070745;28;20430;-63
2021/05/04 00:04:09;;;;;;;6.50;4.43;;;;;;;15.46;45.76;95372.13;5070068;28;21084;-62
2021/05/04 00:06:35;;;;;;;4.83;3.63;;;;;;;15.47;45.85;95379.00;5070741;28;20479;-61
2021/05/04 00:09:03;;;;;;;7.60;4.13;;;;;;;15.48;46.07;95374.50;5069054;28;20465;-61
2021/05/04 00:11:30;;;;;;;8.73;4.13;;;;;;;15.32;45.76;95375.63;5070770;28;20479;-63
2021/05/04 00:13:56;;;;;;;7.20;3.97;;;;;;;15.39;45.73;95376.09;5073654;28;20430;-62
2021/05/04 00:16:23;;;;;;;5.90;3.67;;;;;;;15.50;45.11;95372.38;5072102;28;20442;-61
2021/05/04 00:18:49;;;;;;;6.80;4.27;;;;;;;15.46;45.39;95374.78;5069644;28;20492;-61
2021/05/04 00:21:16;;;;;;;4.43;3.40;;;;;;;15.10;46.09;95368.88;5070431;28;20478;-61
2021/05/04 00:23:42;;;;;;;5.63;3.73;;;;;;;15.07;46.34;95379.19;5069831;28;20858;-63
2021/05/04 00:26:10;;;;;;;5.03;3.80;;;;;;;14.67;47.02;95377.47;5070463;28;20496;-62
2021/05/04 00:28:37;;;;;;;4.40;3.60;;;;;;;14.63;47.46;95388.84;5069712;28;20823;-64
2021/05/04 00:31:03;;;;;;;5.37;3.70;;;;;;;14.65;46.92;95384.88;5070348;28;20434;-64
2021/05/04 00:33:30;;;;;;;4.17;3.40;;;;;;;14.16;47.79;95382.03;5069634;28;20427;-62
2021/05/04 00:35:57;;;;;;;5.40;3.80;;;;;;;14.46;47.58;95383.88;5070140;28;20434;-64
2021/05/04 00:38:24;;;;;;;5.40;3.40;;;;;;;14.37;47.75;95384.69;5069805;28;20441;-63
2021/05/04 00:40:51;;;;;;;4.13;3.47;;;;;;;14.59;47.47;95399.16;5069860;28;20477;-62
2021/05/04 00:43:17;;;;;;;4.47;3.50;;;;;;;14.86;46.98;95394.31;5069615;28;20577;-62
2021/05/04 00:45:44;;;;;;;3.90;3.50;;;;;;;14.90;46.13;95384.81;5070031;28;20422;-62
2021/05/04 00:48:10;;;;;;;6.93;4.03;;;;;;;14.92;46.18;95393.25;5069751;28;20418;-63
2021/05/04 00:50:37;;;;;;;5.40;3.97;;;;;;;15.11;45.77;95391.56;5069926;28;20511;-62
2021/05/04 00:53:03;;;;;;;4.10;3.70;;;;;;;14.70;46.17;95384.88;5069283;28;20432;-62
2021/05/04 00:55:33;;;;;;;5.27;3.87;;;;;;;14.79;46.32;95377.97;5070407;28;20445;-63
2021/05/04 00:58:01;;;;;;;3.77;3.37;;;;;;;14.95;45.72;95378.69;5069485;28;20480;-62
2021/05/04 01:00:28;;;;;;;4.47;4.07;;;;;;;14.42;47.23;95372.28;5069423;28;20499;-61
2021/05/04 01:02:58;;;;;;;5.13;3.53;;;;;;;14.48;46.72;95371.22;5069174;28;20470;-62
2021/05/04 01:05:25;;;;;;;4.53;3.80;;;;;;;14.54;46.79;95369.34;5069809;28;20452;-63
2021/05/04 01:07:52;;;;;;;5.00;4.00;;;;;;;14.81;46.33;95373.22;5069697;28;20446;-63
2021/05/04 01:10:18;;;;;;;3.80;3.50;;;;;;;14.97;45.88;95380.03;5069231;28;20846;-63
2021/05/04 01:12:45;;;;;;;6.03;3.67;;;;;;;15.04;45.39;95380.50;5069362;28;20619;-63
2021/05/04 01:15:12;;;;;;;8.77;3.73;;;;;;;15.12;45.45;95372.03;5069686;28;20460;-62
2021/05/04 01:17:38;;;;;;;4.43;3.60;;;;;;;14.98;46.21;95360.47;5068662;28;20438;-62
2021/05/04 01:20:06;;;;;;;5.93;4.00;;;;;;;14.94;46.30;95375.25;5069692;28;20503;-61
2021/05/04 01:22:33;;;;;;;6.27;3.50;;;;;;;15.08;45.94;95376.28;5067959;28;20449;-63
2021/05/04 01:24:59;;;;;;;6.80;4.00;;;;;;;15.06;45.54;95357.28;5069448;28;20441;-63
2021/05/04 01:27:26;;;;;;;4.17;3.60;;;;;;;15.10;45.81;95368.88;5069228;28;20451;-61
2021/05/04 01:29:53;;;;;;;4.57;4.17;;;;;;;14.90;45.61;95363.69;5069751;28;20442;-62
2021/05/04 01:32:19;;;;;;;6.17;4.00;;;;;;;15.10;45.08;95354.88;5051342;28;20434;-62
2021/05/04 01:34:45;;;;;;;9.30;4.33;;;;;;;15.24;46.01;95363.78;5069888;28;20567;-61
2021/05/04 01:37:12;;;;;;;6.73;4.00;;;;;;;15.25;45.45;95375.94;5069591;28;20442;-61
2021/05/04 01:39:41;;;;;;;4.00;3.60;;;;;;;15.04;44.58;95375.22;5056037;28;20845;-62
2021/05/04 01:42:08;;;;;;;6.60;4.00;;;;;;;15.07;44.64;95374.69;5069242;28;20865;-63
2021/05/04 01:44:34;;;;;;;5.00;4.13;;;;;;;15.01;44.79;95375.78;5069000;28;20929;-64
2021/05/04 01:47:02;;;;;;;9.90;4.33;;;;;;;14.79;44.50;95372.72;5068686;28;20438;-64
2021/05/04 01:49:29;;;;;;;5.33;4.27;;;;;;;14.82;44.95;95377.44;5069492;28;20787;-64
2021/05/04 01:51:56;;;;;;;6.10;4.20;;;;;;;15.13;44.42;95380.72;5069067;28;20446;-63
2021/05/04 01:54:23;;;;;;;4.73;4.13;;;;;;;15.02;43.79;95366.00;5069453;28;20438;-62
2021/05/04 01:56:51;;;;;;;5.70;4.13;;;;;;;14.86;44.58;95378.47;5067651;28;20446;-61
2021/05/04 01:59:18;;;;;;;4.03;3.63;;;;;;;15.04;43.74;95377.88;5069447;28;20503;-63
2021/05/04 02:01:44;;;;;;;6.07;4.30;;;;;;;15.16;43.90;95378.34;5052108;28;20434;-63
2021/05/04 02:04:10;;;;;;;4.63;3.90;;;;;;;15.05;44.25;95381.31;5068677;28;20494;-65
2021/05/04 02:06:37;;;;;;;4.63;4.13;;;;;;;15.09;43.76;95382.34;5052168;28;20449;-64
2021/05/04 02:09:05;;;;;;;4.80;3.90;;;;;;;15.12;43.57;95382.59;5054704;28;20473;-63
2021/05/04 02:11:32;;;;;;;5.00;3.83;;;;;;;15.05;44.05;95371.53;5072620;28;20453;-61
2021/05/04 02:13:58;;;;;;;4.40;4.00;;;;;;;15.16;43.91;95388.13;5072307;28;20429;-61
2021/05/04 02:16:26;;;;;;;7.20;4.90;;;;;;;15.18;43.74;95365.66;5073762;28;20473;-62
2021/05/04 02:18:52;;;;;;;5.47;4.17;;;;;;;15.29;44.54;95370.91;5072800;28;21035;-62
2021/05/04 02:21:18;;;;;;;5.50;4.37;;;;;;;15.19;44.76;95372.53;5073792;28;20476;-61
2021/05/04 02:23:46;;;;;;;5.90;4.17;;;;;;;15.18;44.33;95370.16;5072417;28;20509;-63
2021/05/04 02:26:12;;;;;;;5.53;4.23;;;;;;;15.16;43.73;95367.78;5073093;28;20971;-61
2021/05/04 02:28:39;;;;;;;6.90;4.80;;;;;;;15.17;43.84;95372.00;5055328;28;20448;-61
2021/05/04 02:31:08;;;;;;;5.57;4.40;;;;;;;14.61;45.13;95369.84;5073015;28;20442;-62
2021/05/04 02:33:39;;;;;;;6.60;4.37;;;;;;;14.85;44.13;95363.69;5071753;28;21017;-62
2021/05/04 02:36:06;;;;;;;5.13;4.23;;;;;;;14.87;43.93;95374.78;5072622;28;20442;-63
2021/05/04 02:38:34;;;;;;;6.73;5.00;;;;;;;14.83;44.48;95362.41;5072541;28;20971;-61
2021/05/04 02:41:02;;;;;;;7.70;4.67;;;;;;;14.97;44.46;95364.19;5072625;28;20525;-64
2021/05/04 02:43:28;;;;;;;8.23;4.77;;;;;;;14.80;44.84;95379.53;5071885;28;20473;-62
2021/05/04 02:45:55;;;;;;;6.33;4.30;;;;;;;14.54;46.39;95379.91;5072306;28;20922;-62
2021/05/04 02:48:22;;;;;;;6.47;4.70;;;;;;;14.62;45.71;95385.41;5071956;28;20492;-64
2021/05/04 02:50:49;;;;;;;12.57;4.87;;;;;;;14.63;46.13;95379.09;5072984;28;20802;-63
2021/05/04 02:53:15;;;;;;;8.47;5.37;;;;;;;14.50;45.81;95390.19;5070571;28;20418;-62
2021/05/04 02:55:42;;;;;;;6.53;5.03;;;;;;;14.55;46.29;95392.81;5072087;28;20445;-64
2021/05/04 02:58:10;;;;;;;5.17;4.67;;;;;;;14.59;45.84;95399.16;5072234;28;20441;-63
2021/05/04 03:00:36;;;;;;;5.10;4.40;;;;;;;14.68;46.07;95389.63;5071690;28;20956;-63
2021/05/04 03:03:03;;;;;;;7.13;5.07;;;;;;;14.50;46.15;95400.75;5073315;28;20551;-62
2021/05/04 03:05:30;;;;;;;6.00;4.30;;;;;;;14.60;45.89;95399.91;5072203;28;20446;-61
2021/05/04 03:07:56;;;;;;;6.03;4.23;;;;;;;14.43;45.89;95394.16;5071407;28;20446;-63
2021/05/04 03:10:23;;;;;;;4.33;3.93;;;;;;;14.38;45.98;95402.88;5071241;28;20480;-62
2021/05/04 03:12:50;;;;;;;6.10;4.20;;;;;;;14.17;45.85;95396.81;5071376;28;20958;-64
2021/05/04 03:15:16;;;;;;;6.00;4.27;;;;;;;14.43;45.95;95400.25;5053936;28;20456;-63
2021/05/04 03:17:43;;;;;;;8.60;4.60;;;;;;;14.40;46.19;95390.22;5071679;28;20495;-63
2021/05/04 03:20:10;;;;;;;5.37;4.30;;;;;;;14.65;45.72;95400.69;5053747;28;20435;-63
2021/05/04 03:22:37;;;;;;;6.03;4.33;;;;;;;14.67;45.43;95406.50;5071039;28;20438;-64
2021/05/04 03:25:03;;;;;;;5.10;4.30;;;;;;;14.52;45.06;95411.03;5053516;28;20430;-60
2021/05/04 03:27:30;;;;;;;6.20;3.90;;;;;;;14.48;45.08;95416.03;5070897;28;20438;-63
2021/05/04 03:29:56;;;;;;;4.87;4.00;;;;;;;14.55;44.65;95407.84;5071607;28;20434;-63
2021/05/04 03:32:22;;;;;;;5.73;3.73;;;;;;;14.30;44.61;95416.59;5070990;28;20828;-62
2021/05/04 03:34:49;;;;;;;5.87;4.07;;;;;;;14.42;44.23;95419.75;5071118;28;20438;-64
2021/05/04 03:37:15;;;;;;;7.60;4.03;;;;;;;14.09;44.57;95431.59;5070858;28;20433;-62
2021/05/04 03:39:43;;;;;;;4.87;4.13;;;;;;;13.90;45.28;95432.38;5071101;28;20811;-62
2021/05/04 03:42:09;;;;;;;5.37;3.43;;;;;;;14.24;44.89;95428.16;5070737;28;20434;-62
2021/05/04 03:44:35;;;;;;;5.67;3.30;;;;;;;13.96;44.45;95418.94;5070775;28;20485;-63
2021/05/04 03:47:02;;;;;;;5.00;3.53;;;;;;;14.30;44.20;95421.06;5070864;28;20524;-61
2021/05/04 03:49:28;;;;;;;5.57;3.57;;;;;;;14.33;43.62;95421.34;5071023;28;21027;-62
2021/05/04 03:51:55;;;;;;;4.50;3.50;;;;;;;14.30;43.28;95421.88;5070735;28;20446;-61
2021/05/04 03:54:21;;;;;;;4.83;3.37;;;;;;;14.14;43.50;95422.91;5070839;28;20454;-64
2021/05/04 03:56:47;;;;;;;6.90;3.60;;;;;;;14.24;43.03;95423.69;5070814;28;20613;-62
2021/05/04 03:59:14;;;;;;;3.70;3.07;;;;;;;14.28;43.52;95417.91;5071010;28;20422;-61
2021/05/04 04:01:40;;;;;;;4.57;3.13;;;;;;;14.24;42.61;95421.06;5070990;28;20438;-63
2021/05/04 04:04:07;;;;;;;5.20;3.17;;;;;;;14.18;42.56;95430.00;5070296;28;20846;-63
2021/05/04 04:06:33;;;;;;;4.27;3.40;;;;;;;14.13;42.48;95423.94;5070860;28;20549;-62
2021/05/04 04:09:00;;;;;;;6.90;3.23;;;;;;;14.35;42.20;95429.78;5070154;28;20798;-62
2021/05/04 04:11:26;;;;;;;7.47;3.70;;;;;;;14.35;42.52;95428.97;5070346;28;21225;-64
2021/05/04 04:13:53;;;;;;;10.20;3.53;;;;;;;14.42;43.09;95422.38;5070020;28;20541;-63
2021/05/04 04:16:19;;;;;;;4.83;3.37;;;;;;;14.48;43.09;95429.22;5070646;28;20450;-64
2021/05/04 04:18:46;;;;;;;6.17;3.47;;;;;;;14.21;43.58;95426.84;5070324;28;20522;-63
2021/05/04 04:21:13;;;;;;;3.73;3.23;;;;;;;13.96;43.26;95426.03;5070749;28;20442;-62
2021/05/04 04:23:40;;;;;;;4.07;3.40;;;;;;;14.02;43.14;95435.53;5069765;28;20489;-62
2021/05/04 04:26:06;;;;;;;4.17;3.80;;;;;;;13.97;42.87;95438.19;5072740;28;20442;-62
2021/05/04 04:28:32;;;;;;;4.47;3.47;;;;;;;14.06;42.63;95440.03;5062946;28;20953;-61
2021/05/04 04:30:59;;;;;;;6.53;3.70;;;;;;;13.94;43.37;95438.72;5061825;28;20460;-66
2021/05/04 04:33:26;;;;;;;5.00;3.60;;;;;;;14.13;43.66;95434.50;5060413;28;20468;-63
2021/05/04 04:35:53;;;;;;;6.07;3.97;;;;;;;14.42;42.80;95440.03;5067541;28;20573;-63
2021/05/04 04:38:20;;;;;;;4.83;3.47;;;;;;;14.40;43.41;95436.91;5068397;28;20982;-62
2021/05/04 04:40:47;;;;;;;4.03;3.50;;;;;;;14.24;42.99;95443.97;5068655;28;20943;-62
2021/05/04 04:43:14;;;;;;;4.10;3.50;;;;;;;14.46;43.04;95441.88;5067859;28;20581;-62
2021/05/04 04:45:41;;;;;;;12.90;3.87;;;;;;;14.18;42.61;95450.31;5066143;28;20445;-65
2021/05/04 04:48:08;;;;;;;6.23;3.60;;;;;;;14.19;42.84;95451.91;5067525;28;20445;-61
2021/05/04 04:50:35;;;;;;;6.53;3.90;;;;;;;14.34;43.33;95451.94;5068324;28;20525;-63
2021/05/04 04:53:01;;;;;;;8.10;3.50;;;;;;;14.60;43.37;95442.91;5067981;28;20434;-63
2021/05/04 04:55:28;;;;;;;4.70;3.50;;;;;;;14.60;42.49;95448.19;5058823;28;20446;-63
2021/05/04 04:57:54;;;;;;;5.93;3.70;;;;;;;14.66;43.38;95444.50;5067671;28;20440;-64
2021/05/04 05:00:21;;;;;;;7.50;3.77;;;;;;;14.44;42.90;95444.00;5065337;28;20444;-62
2021/05/04 05:02:47;;;;;;;5.63;3.70;;;;;;;14.60;42.26;95448.19;5067738;28;20430;-60
2021/05/04 05:05:14;;;;;;;7.07;3.87;;;;;;;14.65;42.56;95450.03;5068308;28;20439;-62
2021/05/04 05:07:40;;;;;;;5.03;3.37;;;;;;;14.38;41.85;95439.78;5067326;28;20437;-61
2021/05/04 05:10:08;;;;;;;5.33;3.30;;;;;;;14.80;41.66;95448.16;5067519;28;20550;-63
2021/05/04 05:12:34;;;;;;;5.77;3.50;;;;;;;14.67;40.94;95451.34;5067852;28;20446;-63
2021/05/04 05:15:02;;;;;;;4.80;3.30;;;;;;;14.52;41.24;95446.09;5068330;28;20453;-61
2021/05/04 05:17:30;;;;;;;5.23;3.50;;;;;;;14.66;43.94;95457.69;5067875;28;20442;-64
2021/05/04 05:19:58;;;;;;;3.47;3.17;;;;;;;14.84;41.48;95451.84;5067899;28;20474;-64
2021/05/04 05:22:28;;;;;;;4.10;3.37;;;;;;;14.20;42.04;95450.81;5065437;28;20487;-67
2021/05/04 05:24:56;;;;;;;3.83;3.20;;;;;;;14.39;42.38;95446.66;5058865;28;20486;-62
2021/05/04 05:27:23;;;;;;;6.10;3.57;;;;;;;14.58;42.27;95429.19;5066849;28;20866;-70
2021/05/04 05:29:49;;;;;;;4.37;3.60;;;;;;;14.57;41.92;95430.28;5067138;28;20438;-65
2021/05/04 05:32:19;;;;;;;5.90;3.60;;;;;;;14.75;42.52;95442.88;5067169;28;20438;-65
2021/05/04 05:34:46;;;;;;;5.50;3.70;;;;;;;14.54;42.70;95438.72;5067534;28;20430;-63
2021/05/04 05:37:14;;;;;;;4.77;3.60;;;;;;;14.72;42.39;95438.16;5064803;28;20438;-67
2021/05/04 05:39:42;;;;;;;10.80;3.80;;;;;;;14.79;42.72;95430.75;5066988;28;21227;-63
2021/05/04 05:42:11;;;;;;;4.73;3.83;;;;;;;14.61;43.33;95443.72;5067834;28;20459;-64
2021/05/04 05:44:37;;;;;;;4.33;3.50;;;;;;;15.02;41.95;95430.13;5071324;28;21019;-67
2021/05/04 05:47:04;;;;;;;4.17;3.50;;;;;;;15.14;42.53;95424.56;5070710;28;20438;-66
2021/05/04 05:49:32;;;;;;;5.47;3.73;;;;;;;15.03;41.43;95429.09;5070986;28;20515;-63
2021/05/04 05:52:01;;;;;;;4.20;3.57;;;;;;;15.10;41.52;95416.41;5074483;28;20507;-66
2021/05/04 05:54:27;;;;;;;6.77;3.73;;;;;;;15.34;42.29;95410.47;5071275;28;20451;-65
2021/05/04 05:56:55;;;;;;;6.27;4.10;;;;;;;15.22;42.84;95414.22;5070150;28;21013;-65
2021/05/04 05:59:22;;;;;;;7.07;3.93;;;;;;;15.29;41.37;95405.22;5071083;28;20434;-65
2021/05/04 06:01:48;;;;;;;18.60;5.33;;;;;;;15.56;41.27;95409.06;5071103;28;20430;-64
2021/05/04 06:04:15;;;;;;;14.70;5.97;;;;;;;15.26;40.88;95403.91;5070701;28;20481;-64
2021/05/04 06:06:41;;;;;;;9.50;4.47;;;;;;;15.01;42.09;95399.53;5066624;28;20540;-63
2021/05/04 06:09:08;;;;;;;6.20;3.87;;;;;;;14.96;42.16;95386.34;5067858;28;20481;-66
2021/05/04 06:11:35;;;;;;;5.13;3.80;;;;;;;15.27;41.03;95394.13;5070720;28;20436;-63
2021/05/04 06:14:02;;;;;;;4.93;3.30;;;;;;;15.39;42.33;95391.94;5064209;28;20462;-67
2021/05/04 06:16:28;;;;;;;6.30;3.90;;;;;;;15.95;41.22;95390.53;5070466;28;20445;-61
2021/05/04 06:18:55;;;;;;;4.73;3.50;;;;;;;15.72;40.47;95385.97;5070390;28;20442;-62
2021/05/04 06:21:25;;;;;;;8.17;3.67;;;;;;;16.13;42.06;95382.72;5071739;28;20524;-63
2021/05/04 06:23:52;;;;;;;4.33;3.27;;;;;;;16.21;40.33;95378.69;5070012;28;20469;-62
2021/05/04 06:26:18;;;;;;;4.83;3.13;;;;;;;16.20;41.17;95371.84;5071094;28;20542;-64
2021/05/04 06:28:50;;;;;;;9.90;3.57;;;;;;;16.32;41.50;95372.25;5070310;28;20445;-66
2021/05/04 06:31:18;;;;;;;5.07;3.30;;;;;;;16.48;40.85;95373.69;5067378;28;20824;-63
2021/05/04 06:33:44;;;;;;;7.03;3.60;;;;;;;16.34;40.40;95371.97;5066464;28;20444;-68
2021/05/04 06:36:11;;;;;;;4.27;3.50;;;;;;;16.53;38.69;95373.63;5068117;28;20438;-65
2021/05/04 06:38:38;;;;;;;4.20;3.20;;;;;;;16.61;39.42;95370.38;5069590;28;20445;-65
2021/05/04 06:41:05;;;;;;;5.83;3.53;;;;;;;16.57;40.57;95369.38;5070896;28;20465;-65
2021/05/04 06:43:31;;;;;;;4.33;3.07;;;;;;;16.48;38.98;95367.59;5069263;28;20482;-64
2021/05/04 06:45:59;;;;;;;6.20;2.90;;;;;;;16.17;40.11;95375.03;5070134;28;20817;-65
2021/05/04 06:48:26;;;;;;;4.77;3.43;;;;;;;16.39;39.00;95364.75;5069376;28;20513;-63
2021/05/04 06:50:53;;;;;;;5.23;3.20;;;;;;;16.50;39.50;95370.75;5070292;28;20524;-67
2021/05/04 06:53:19;;;;;;;5.00;3.23;;;;;;;16.64;38.79;95377.75;5068867;28;20434;-70
2021/05/04 06:55:49;;;;;;;7.30;3.20;;;;;;;16.33;38.48;95373.81;5072120;28;20537;-72
2021/05/04 06:58:15;;;;;;;3.93;3.00;;;;;;;16.91;38.04;95362.13;5069892;28;20525;-65
2021/05/04 07:00:41;;;;;;;9.13;3.40;;;;;;;16.97;39.66;95360.97;5069910;28;20525;-65
2021/05/04 07:03:08;;;;;;;5.47;3.50;;;;;;;17.11;39.01;95364.53;5069503;28;20521;-65
2021/05/04 07:05:34;;;;;;;5.23;3.73;;;;;;;17.35;39.01;95361.81;5070283;28;20469;-68
2021/05/04 07:08:01;;;;;;;6.33;4.23;;;;;;;17.15;38.04;95346.19;5069912;28;20784;-65
2021/05/04 07:10:27;;;;;;;6.93;4.23;;;;;;;17.22;38.33;95352.69;5069831;28;20958;-65
2021/05/04 07:12:54;;;;;;;5.10;3.30;;;;;;;17.19;38.03;95342.69;5069993;28;20821;-66
2021/05/04 07:15:20;;;;;;;5.23;3.70;;;;;;;17.32;38.12;95335.13;5068051;28;20441;-62
2021/05/04 07:17:47;;;;;;;6.33;4.43;;;;;;;17.09;40.12;95336.75;5069551;28;20434;-64
2021/05/04 07:20:21;;;;;;;4.93;3.90;;;;;;;17.29;39.22;95340.97;5066041;28;20446;-65
2021/05/04 07:22:52;;;;;;;4.00;3.60;;;;;;;17.43;39.32;95315.31;5066757;28;20442;-65
2021/05/04 07:25:19;;;;;;;5.10;3.80;;;;;;;17.49;38.22;95324.81;5071068;28;20474;-66
2021/05/04 07:27:46;;;;;;;35.67;21.53;;;;;;;17.51;39.29;95327.97;5051939;28;20446;-65
2021/05/04 07:30:14;;;;;;;10.80;7.60;;;;;;;17.82;39.07;95323.78;5070566;28;20442;-66
2021/05/04 07:32:41;;;;;;;32.63;27.40;;;;;;;18.15;38.64;95320.03;5070244;28;20438;-66
2021/05/04 07:35:08;;;;;;;11.07;5.00;;;;;;;18.49;38.25;95323.16;5070819;28;20441;-67
2021/05/04 07:37:38;;;;;;;8.37;4.00;;;;;;;18.50;37.58;95308.03;5069586;28;20494;-65
2021/05/04 07:40:05;;;;;;;7.20;5.70;;;;;;;18.52;35.78;95330.50;5051267;28;20434;-66
2021/05/04 07:42:32;;;;;;;173.87;155.10;;;;;;;18.84;36.27;95314.50;5066409;28;20525;-65
2021/05/04 07:44:58;;;;;;;15.23;8.03;;;;;;;18.96;36.17;95313.97;5068896;28;20565;-64
2021/05/04 07:47:28;;;;;;;10.63;4.83;;;;;;;18.94;35.37;95319.59;5068571;28;20445;-67
2021/05/04 07:49:56;;;;;;;17.93;5.13;;;;;;;18.84;35.58;95319.81;5068626;28;20442;-66
2021/05/04 07:52:25;;;;;;;21.40;6.33;;;;;;;19.12;38.24;95308.06;5068549;28;20431;-66
2021/05/04 07:54:52;;;;;;;23.43;6.00;;;;;;;19.09;35.82;95316.63;5052213;28;20554;-64
2021/05/04 07:57:22;;;;;;;8.13;4.40;;;;;;;18.88;35.26;95320.81;5052174;28;20449;-65
2021/05/04 07:59:51;;;;;;;15.17;4.57;;;;;;;19.13;35.04;95324.78;5070231;28;20964;-66
2021/05/04 08:02:18;;;;;;;23.83;8.67;;;;;;;18.99;35.64;95322.16;5069917;28;20521;-66
2021/05/04 08:04:47;;;;;;;13.70;5.40;;;;;;;19.18;35.58;95312.19;5051559;28;20485;-65
2021/05/04 08:07:14;;;;;;;14.47;12.53;;;;;;;19.18;36.88;95312.19;5069695;28;20200;-68
2021/05/04 08:09:41;;;;;;;17.43;15.17;;;;;;;19.48;35.07;95308.09;5069829;28;20492;-66
2021/05/04 08:12:08;;;;;;;6.67;3.97;;;;;;;19.59;34.03;95303.34;5070265;28;20199;-65
2021/05/04 08:14:35;;;;;;;13.67;4.77;;;;;;;19.55;34.36;95297.84;5070163;28;20426;-65
2021/05/04 08:17:16;;;;;;;10.30;4.63;;;;;;;19.79;35.40;95289.56;5069695;28;20207;-67
2021/05/04 08:19:44;;;;;;;6.80;5.30;;;;;;;19.60;35.07;95278.31;5063878;28;20461;-64
2021/05/04 08:22:10;;;;;;;10.57;5.03;;;;;;;19.70;34.19;95278.06;5069522;28;20442;-66
2021/05/04 08:24:38;;;;;;;8.73;4.97;;;;;;;19.66;35.77;95271.78;5069429;28;20804;-65
2021/05/04 08:27:05;;;;;;;27.20;8.67;;;;;;;19.73;35.90;95274.81;5051724;28;20290;-65
2021/05/04 08:29:33;;;;;;;10.47;6.20;;;;;;;19.97;35.43;95272.59;5066968;28;20290;-66
2021/05/04 08:32:02;;;;;;;10.93;6.10;;;;;;;19.98;33.92;95274.19;5069249;28;20449;-64
2021/05/04 08:34:32;;;;;;;8.93;5.87;;;;;;;20.15;34.04;95268.94;5068831;28;20533;-65
2021/05/04 08:36:59;;;;;;;8.50;4.57;;;;;;;20.42;32.32;95265.34;5068729;28;20453;-65
2021/05/04 08:39:26;;;;;;;5.17;3.80;;;;;;;20.25;31.77;95274.06;5054166;28;20192;-64
2021/05/04 08:41:52;;;;;;;5.53;3.63;;;;;;;20.51;31.57;95264.28;5069455;28;20670;-64
2021/05/04 08:44:20;;;;;;;5.57;3.60;;;;;;;20.43;31.51;95264.25;5069326;28;20226;-64
2021/05/04 08:46:49;;;;;;;3.43;2.20;;;;;;;20.28;27.69;95268.09;5069172;28;20705;-63
2021/05/04 08:49:17;;;;;;;2.83;2.60;;;;;;;20.14;29.87;95262.06;5069259;28;20708;-64
2021/05/04 08:51:45;;;;;;;5.60;2.80;;;;;;;20.29;29.97;95263.56;5068903;28;20223;-66
2021/05/04 08:54:12;;;;;;;7.23;2.57;;;;;;;20.47;31.16;95252.69;5069191;28;20203;-63
2021/05/04 08:56:42;;;;;;;5.00;2.63;;;;;;;20.74;30.48;95249.78;5069044;28;20180;-64
2021/05/04 08:59:09;;;;;;;3.13;2.60;;;;;;;20.52;31.44;95257.88;5050789;28;20233;-62
2021/05/04 09:01:37;;;;;;;3.80;2.70;;;;;;;20.58;30.67;95255.84;5069629;28;20294;-63
2021/05/04 09:04:11;;;;;;;6.97;2.90;;;;;;;20.84;30.24;95249.47;5051359;28;20645;-64
2021/05/04 09:06:43;;;;;;;19.57;16.33;;;;;;;20.23;29.15;95252.28;5066504;28;20203;-63
2021/05/04 09:12:31;;;;;;;3.70;2.77;;;;;;;20.66;28.71;95247.09;5052571;28;20208;-64
2021/05/04 09:15:03;;;;;;;4.57;2.40;;;;;;;21.15;28.73;95239.53;5069091;28;20294;-64
2021/05/04 09:17:38;;;;;;;5.97;2.30;;;;;;;21.36;28.75;95237.03;5074970;28;20212;-64
2021/05/04 09:22:40;;;;;;;6.90;3.20;;;;;;;21.33;29.90;95239.53;5075369;28;20191;-64
2021/05/04 09:25:34;;;;;;;4.43;2.40;;;;;;;21.21;29.25;95228.69;5076160;28;20255;-63
2021/05/04 09:28:06;;;;;;;5.43;3.17;;;;;;;20.88;30.90;95226.47;5075416;28;20206;-64
2021/05/04 09:30:34;;;;;;;5.40;2.90;;;;;;;20.89;30.33;95206.69;5075713;28;20234;-64
2021/05/04 09:33:06;;;;;;;6.17;2.83;;;;;;;21.26;30.66;95204.56;5075379;28;20661;-65
2021/05/04 09:35:33;;;;;;;6.37;2.73;;;;;;;21.59;30.57;95200.28;5075843;28;20201;-64
2021/05/04 09:38:07;;;;;;;4.70;2.60;;;;;;;21.66;30.21;95203.28;5074903;28;20673;-64
2021/05/04 09:40:36;;;;;;;5.23;2.60;;;;;;;21.79;29.36;95188.97;5073722;28;20191;-65
2021/05/04 09:43:12;;;;;;;6.40;2.80;;;;;;;22.02;28.78;95198.34;5072819;28;20196;-63
2021/05/04 09:46:00;;;;;;;6.30;2.60;;;;;;;22.09;28.81;95187.94;5072299;28;20199;-63
2021/05/04 09:48:33;;;;;;;5.13;2.87;;;;;;;22.49;29.30;95186.50;5072701;28;20290;-63
2021/05/04 09:51:02;;;;;;;12.97;4.83;;;;;;;22.16;28.90;95177.53;5071946;28;20705;-69
2021/05/04 09:53:34;;;;;;;7.67;3.10;;;;;;;22.35;30.08;95185.94;5073949;28;20233;-66
2021/05/04 09:56:03;;;;;;;3.83;2.50;;;;;;;21.95;29.06;95176.69;5072443;28;20207;-67
2021/05/04 09:58:31;;;;;;;4.43;3.27;;;;;;;22.72;28.44;95174.44;5075406;28;20195;-64
2021/05/04 10:00:57;;;;;;;4.30;3.03;;;;;;;22.81;27.65;95163.69;5075821;28;20200;-63
2021/05/04 10:03:28;;;;;;;6.20;3.07;;;;;;;22.73;28.75;95176.00;5057126;28;20291;-65
2021/05/04 10:05:59;;;;;;;5.03;3.07;;;;;;;22.75;26.80;95179.16;5075603;28;20188;-66
2021/05/04 10:08:29;;;;;;;5.30;2.77;;;;;;;23.26;26.42;95175.28;5074357;28;20214;-67
2021/05/04 10:10:59;;;;;;;4.03;3.17;;;;;;;22.89;26.72;95178.88;5073509;28;20736;-66
2021/05/04 10:13:28;;;;;;;3.07;2.63;;;;;;;22.88;26.72;95175.41;5075773;28;20224;-67
2021/05/04 10:15:56;;;;;;;9.57;3.73;;;;;;;22.93;27.99;95163.75;5075645;28;20191;-66
2021/05/04 10:18:23;;;;;;;4.27;2.90;;;;;;;23.30;27.13;95160.19;5075787;28;20204;-67
2021/05/04 10:20:52;;;;;;;4.50;2.70;;;;;;;23.34;27.89;95152.28;5076002;28;20219;-65
2021/05/04 10:23:19;;;;;;;6.13;3.23;;;;;;;23.25;26.57;95155.00;5076017;28;20195;-68
2021/05/04 10:25:50;;;;;;;10.83;3.70;;;;;;;23.37;26.57;95151.63;5075273;28;20221;-64
2021/05/04 10:28:22;;;;;;;6.40;3.27;;;;;;;22.56;26.57;95149.41;5072608;28;20207;-64
2021/05/04 10:30:49;;;;;;;7.77;3.93;;;;;;;23.36;26.54;95142.00;5071877;28;20195;-68
2021/05/04 10:33:34;;;;;;;7.23;3.40;;;;;;;23.76;28.05;95143.81;5072225;28;20617;-67
2021/05/04 10:36:02;;;;;;;6.73;3.10;;;;;;;23.99;28.28;95149.53;5071756;28;20669;-66
2021/05/04 10:38:51;;;;;;;7.33;3.33;;;;;;;24.01;25.81;95158.03;5072006;28;20674;-68
2021/05/04 10:41:19;;;;;;;3.70;3.10;;;;;;;23.93;27.75;95157.00;5071924;28;20223;-67
2021/05/04 10:43:45;;;;;;;6.00;3.53;;;;;;;24.29;27.06;95153.56;5071943;28;20244;-64
2021/05/04 10:46:33;;;;;;;7.93;3.33;;;;;;;23.93;25.77;95137.47;5071933;28;20677;-66
2021/05/04 10:48:59;;;;;;;13.07;3.13;;;;;;;24.04;28.27;95117.22;5071837;28;20796;-65
2021/05/04 10:52:05;;;;;;;5.50;3.37;;;;;;;24.67;25.92;95119.16;5071649;28;20237;-67
2021/05/04 10:54:54;;;;;;;4.20;2.87;;;;;;;24.44;25.81;95115.41;5009834;28;20299;-64
2021/05/04 10:57:20;;;;;;;3.90;2.80;;;;;;;24.23;26.84;95124.69;5009164;28;20684;-65
2021/05/04 10:59:49;;;;;;;4.67;3.10;;;;;;;24.29;27.05;95113.41;5049391;28;20207;-68
2021/05/04 11:02:15;;;;;;;5.67;3.17;;;;;;;24.89;26.56;95102.59;5071634;28;20200;-66
2021/05/04 11:04:45;;;;;;;5.30;2.93;;;;;;;24.92;26.22;95085.06;5071340;28;20215;-66
2021/05/04 11:07:11;;;;;;;5.03;3.27;;;;;;;24.63;27.51;95091.50;5070627;28;20508;-66
2021/05/04 11:09:40;;;;;;;3.67;3.00;;;;;;;24.52;26.74;95093.09;5071411;28;20235;-66
2021/05/04 11:12:09;;;;;;;4.13;2.80;;;;;;;24.39;26.49;95086.19;5070965;28;20257;-68
2021/05/04 11:14:39;;;;;;;7.67;3.43;;;;;;;23.94;26.38;95093.53;5071144;28;20192;-67
2021/05/04 11:17:09;;;;;;;6.63;3.00;;;;;;;24.28;27.53;95093.13;5071004;28;21033;-68
2021/05/04 11:19:42;;;;;;;6.43;3.33;;;;;;;24.72;27.24;95083.34;5071870;28;20199;-67
2021/05/04 11:22:14;;;;;;;4.23;3.00;;;;;;;24.79;26.02;95089.69;5070621;28;20270;-65
2021/05/04 11:24:44;;;;;;;7.43;3.97;;;;;;;24.88;27.88;95087.66;5071031;28;20200;-65
2021/05/04 11:27:16;;;;;;;9.53;3.37;;;;;;;25.22;26.40;95069.41;5071276;28;20674;-65
2021/05/04 11:29:47;;;;;;;7.93;3.50;;;;;;;24.70;25.69;95070.28;5071100;28;20208;-64
2021/05/04 11:32:13;;;;;;;5.47;3.80;;;;;;;25.19;25.50;95060.13;5067792;28;20188;-64
2021/05/04 11:34:50;;;;;;;8.53;3.73;;;;;;;25.15;26.79;95063.84;5070366;28;20200;-69
2021/05/04 11:37:19;;;;;;;5.30;3.40;;;;;;;25.40;25.80;95057.28;5069075;28;20199;-65
2021/05/04 11:39:53;;;;;;;4.87;2.97;;;;;;;25.13;25.92;95061.50;5066238;28;20199;-64
2021/05/04 11:42:21;;;;;;;4.97;4.00;;;;;;;25.19;26.26;95070.09;5068683;28;20207;-64